createdAt,value
2023-04-05T00:00:19.267Z,3.57
2023-04-05T00:05:30.058Z,3.48
2023-04-05T00:10:34.853Z,3.42
2023-04-05T00:15:38.087Z,3.38
2023-04-05T00:20:41.603Z,3.31
2023-04-05T00:25:46.300Z,3.33
2023-04-05T00:30:52.428Z,3.29
2023-04-05T00:35:55.433Z,3.21
2023-04-05T00:40:59.711Z,3.19
2023-04-05T00:46:03.285Z,3.10
2023-04-05T00:51:09.622Z,3.07
2023-04-05T00:56:14.851Z,3.04
2023-04-05T01:01:20.389Z,2.98
2023-04-05T01:06:33.090Z,2.96
2023-04-05T01:11:40.528Z,2.91
2023-04-05T01:16:43.652Z,2.90
2023-04-05T01:22:17.004Z,2.84
2023-04-05T01:27:29.471Z,2.73
2023-04-05T01:32:45.205Z,2.69
2023-04-05T01:37:56.874Z,2.55
2023-04-05T01:43:03.044Z,2.66
2023-04-05T01:48:08.068Z,2.58
2023-04-05T01:53:11.410Z,2.49
2023-04-05T01:58:14.567Z,2.41
2023-04-05T02:03:18.990Z,2.28
2023-04-05T02:08:21.989Z,2.22
2023-04-05T02:13:25.912Z,2.16
2023-04-05T02:18:31.970Z,2.06
2023-04-05T02:23:36.091Z,1.93
2023-04-05T02:28:39.092Z,1.87
2023-04-05T02:33:43.910Z,1.83
2023-04-05T02:38:46.869Z,1.74
2023-04-05T02:43:52.223Z,1.68
2023-04-05T02:48:56.570Z,1.65
2023-04-05T02:54:03.456Z,1.57
2023-04-05T02:59:11.549Z,1.46
2023-04-05T03:04:17.399Z,1.45
2023-04-05T03:09:20.895Z,1.39
2023-04-05T03:14:30.120Z,1.33
2023-04-05T03:19:35.831Z,1.30
2023-04-05T03:25:00.904Z,1.20
2023-04-05T03:30:04.171Z,1.12
2023-04-05T03:35:13.373Z,1.13
2023-04-05T03:40:20.782Z,1.06
2023-04-05T03:45:25.173Z,1.01
2023-04-05T03:50:32.030Z,0.99
2023-04-05T03:55:35.023Z,0.96
2023-04-05T04:00:41.870Z,0.87
2023-04-05T04:05:57.211Z,0.82
2023-04-05T04:11:00.504Z,0.85
2023-04-05T04:16:07.237Z,0.82
2023-04-05T04:21:35.905Z,0.74
2023-04-05T04:26:49.048Z,0.74
2023-04-05T04:32:26.905Z,0.71
2023-04-05T04:37:53.701Z,0.63
2023-04-05T04:43:18.181Z,0.63
2023-04-05T04:48:53.449Z,0.61
2023-04-05T04:54:09.373Z,0.54
2023-04-05T04:59:12.435Z,0.54
2023-04-05T05:04:16.770Z,0.46
2023-04-05T05:09:22.535Z,0.49
2023-04-05T05:14:29.802Z,0.47
2023-04-05T05:19:32.790Z,0.47
2023-04-05T05:24:37.558Z,0.50
2023-04-05T05:29:41.482Z,0.52
2023-04-05T05:34:45.231Z,0.56
2023-04-05T05:39:52.343Z,0.58
2023-04-05T05:44:55.419Z,0.63
2023-04-05T05:49:58.985Z,0.65
2023-04-05T05:55:03.498Z,0.70
2023-04-05T06:00:09.815Z,0.74
2023-04-05T06:05:15.952Z,0.81
2023-04-05T06:10:20.928Z,0.93
2023-04-05T06:15:24.036Z,1.01
2023-04-05T06:20:27.130Z,1.08
2023-04-05T06:25:38.014Z,1.15
2023-04-05T06:30:41.223Z,1.24
2023-04-05T06:35:44.364Z,1.35
2023-04-05T06:40:51.743Z,1.42
2023-04-05T06:45:57.560Z,1.50
2023-04-05T06:51:02.361Z,1.62
2023-04-05T06:56:07.325Z,1.81
2023-04-05T07:01:11.515Z,1.93
2023-04-05T07:06:15.186Z,2.03
2023-04-05T07:11:19.664Z,2.12
2023-04-05T07:16:23.879Z,2.21
2023-04-05T07:21:27.156Z,2.33
2023-04-05T07:26:35.105Z,2.40
2023-04-05T07:31:41.714Z,2.57
2023-04-05T07:36:44.740Z,2.69
2023-04-05T07:41:49.322Z,2.82
2023-04-05T07:46:52.501Z,2.99
2023-04-05T07:51:56.843Z,3.15
2023-04-05T07:57:01.383Z,3.39
2023-04-05T08:02:13.795Z,3.58
2023-04-05T08:07:17.324Z,3.87
2023-04-05T08:12:21.844Z,4.22
2023-04-05T08:17:27.242Z,4.61
2023-04-05T08:22:31.989Z,5.04
2023-04-05T08:27:36.680Z,5.48
2023-04-05T08:32:40.154Z,5.89
2023-04-05T08:37:43.501Z,6.36
2023-04-05T08:42:57.283Z,6.83
2023-04-05T08:48:00.450Z,7.26
2023-04-05T08:53:03.589Z,7.57
2023-04-05T08:58:14.276Z,8.05
2023-04-05T09:03:19.840Z,8.55
2023-04-05T09:08:22.919Z,9.11
2023-04-05T09:13:27.428Z,9.60
2023-04-05T09:18:32.143Z,9.93
2023-04-05T09:23:35.795Z,10.37
2023-04-05T09:28:43.960Z,10.71
2023-04-05T09:33:47.952Z,11.13
2023-04-05T09:38:54.097Z,11.40
2023-04-05T09:43:58.546Z,11.53
2023-04-05T09:49:04.019Z,11.88
2023-04-05T09:54:08.383Z,12.17
2023-04-05T09:59:13.858Z,12.54
2023-04-05T10:04:18.917Z,12.84
2023-04-05T10:09:23.254Z,12.96
2023-04-05T10:14:27.839Z,13.01
2023-04-05T10:19:52.196Z,13.34
2023-04-05T10:25:01.138Z,13.34
2023-04-05T10:30:11.351Z,13.47
2023-04-05T10:35:18.515Z,13.38
2023-04-05T10:40:23.536Z,13.62
2023-04-05T10:45:29.471Z,14.00
2023-04-05T10:50:33.895Z,14.23
2023-04-05T10:55:40.565Z,14.38
2023-04-05T11:00:46.092Z,14.42
2023-04-05T11:05:49.447Z,14.24
2023-04-05T11:10:54.930Z,14.49
2023-04-05T11:16:11.734Z,14.46
2023-04-05T11:21:22.801Z,14.27
2023-04-05T11:26:32.162Z,14.42
2023-04-05T11:31:36.970Z,14.61
2023-04-05T11:36:46.013Z,14.52
2023-04-05T11:41:55.553Z,14.63
2023-04-05T11:47:00.050Z,14.48
2023-04-05T11:52:12.752Z,14.46
2023-04-05T11:57:17.465Z,14.59
2023-04-05T12:02:22.793Z,14.64
2023-04-05T12:07:29.742Z,14.68
2023-04-05T12:12:38.230Z,14.82
2023-04-05T12:17:47.781Z,14.50
2023-04-05T12:22:56.229Z,14.63
2023-04-05T12:28:05.876Z,14.83
2023-04-05T12:33:11.001Z,14.78
2023-04-05T12:38:17.670Z,14.87
2023-04-05T12:43:20.731Z,14.94
2023-04-05T12:48:26.271Z,14.97
2023-04-05T12:53:29.527Z,15.03
2023-04-05T12:58:37.342Z,14.99
2023-04-05T13:03:45.955Z,15.03
2023-04-05T13:08:52.821Z,15.21
2023-04-05T13:13:56.734Z,15.35
2023-04-05T13:19:01.159Z,15.39
2023-04-05T13:24:04.275Z,15.58
2023-04-05T13:29:08.437Z,15.61
2023-04-05T13:34:13.028Z,15.76
2023-04-05T13:39:16.116Z,15.90
2023-04-05T13:44:19.427Z,16.00
2023-04-05T13:49:23.943Z,16.15
2023-04-05T13:54:27.167Z,16.34
2023-04-05T13:59:30.356Z,16.49
2023-04-05T14:04:34.909Z,16.54
2023-04-05T14:09:38.010Z,16.59
2023-04-05T14:14:41.094Z,16.59
2023-04-05T14:19:45.632Z,16.94
2023-04-05T14:24:51.290Z,17.00
2023-04-05T14:29:57.125Z,16.91
2023-04-05T14:35:02.053Z,17.05
2023-04-05T14:40:05.796Z,17.04
2023-04-05T14:45:10.656Z,16.80
2023-04-05T14:50:15.951Z,16.80
2023-04-05T14:55:19.292Z,16.68
2023-04-05T15:00:25.158Z,16.60
2023-04-05T15:05:29.709Z,16.25
2023-04-05T15:10:32.874Z,15.96
2023-04-05T15:15:35.982Z,15.68
2023-04-05T15:20:40.461Z,15.66
2023-04-05T15:25:43.586Z,15.67
2023-04-05T15:30:46.848Z,16.08
2023-04-05T15:35:51.804Z,16.15
2023-04-05T15:40:57.007Z,16.32
2023-04-05T15:46:00.155Z,16.33
2023-04-05T15:51:05.098Z,16.53
2023-04-05T15:56:08.406Z,16.71
2023-04-05T16:01:14.629Z,16.88
2023-04-05T16:06:19.319Z,16.79
2023-04-05T16:11:23.030Z,16.62
2023-04-05T16:16:38.627Z,16.75
2023-04-05T16:21:53.864Z,16.31
2023-04-05T16:26:57.007Z,16.17
2023-04-05T16:32:00.735Z,16.03
2023-04-05T16:37:05.617Z,16.17
2023-04-05T16:42:09.097Z,16.11
2023-04-05T16:47:12.372Z,15.93
2023-04-05T16:52:16.965Z,15.87
2023-04-05T16:57:20.160Z,15.87
2023-04-05T17:02:23.590Z,15.62
2023-04-05T17:07:28.149Z,15.60
2023-04-05T17:12:31.714Z,15.28
2023-04-05T17:17:34.968Z,14.98
2023-04-05T17:22:40.016Z,14.83
2023-04-05T17:27:43.092Z,15.14
2023-04-05T17:32:46.289Z,15.46
2023-04-05T17:37:53.001Z,15.37
2023-04-05T17:42:56.119Z,14.90
2023-04-05T17:47:59.346Z,14.38
2023-04-05T17:53:04.687Z,13.86
2023-04-05T17:58:07.844Z,13.46
2023-04-05T18:03:13.216Z,13.03
2023-04-05T18:08:18.225Z,12.63
2023-04-05T18:13:21.805Z,12.33
2023-04-05T18:18:25.715Z,12.05
2023-04-05T18:23:30.667Z,11.71
2023-04-05T18:28:33.798Z,11.42
2023-04-05T18:33:37.885Z,11.14
2023-04-05T18:38:42.399Z,10.88
2023-04-05T18:43:46.123Z,10.61
2023-04-05T18:48:57.408Z,10.28
2023-04-05T18:54:02.918Z,10.12
2023-04-05T18:59:06.460Z,9.85
2023-04-05T19:04:10.530Z,9.72
2023-04-05T19:09:16.724Z,9.45
2023-04-05T19:14:20.135Z,9.34
2023-04-05T19:19:23.454Z,9.15
2023-04-05T19:24:28.983Z,8.96
2023-04-05T19:29:32.616Z,8.83
2023-04-05T19:34:38.277Z,8.71
2023-04-05T19:39:42.943Z,8.52
2023-04-05T19:44:54.925Z,8.42
2023-04-05T19:50:00.370Z,8.22
2023-04-05T19:55:27.061Z,8.09
2023-04-05T20:00:36.303Z,8.00
2023-04-05T20:06:04.942Z,7.83
2023-04-05T20:11:12.679Z,7.69
2023-04-05T20:16:17.231Z,7.59
2023-04-05T20:21:20.480Z,7.43
2023-04-05T20:26:28.321Z,7.35
2023-04-05T20:31:32.661Z,7.23
2023-04-05T20:36:38.162Z,7.14
2023-04-05T20:41:43.210Z,6.91
2023-04-05T20:46:46.754Z,6.80
2023-04-05T20:51:50.947Z,6.75
2023-04-05T20:56:55.782Z,6.65
2023-04-05T21:01:59.042Z,6.55
2023-04-05T21:07:02.533Z,6.47
2023-04-05T21:12:08.108Z,6.36
2023-04-05T21:17:11.528Z,6.17
2023-04-05T21:22:14.825Z,6.14
2023-04-05T21:27:19.658Z,6.05
2023-04-05T21:32:22.810Z,5.91
2023-04-05T21:37:27.704Z,5.88
2023-04-05T21:42:35.200Z,5.79
2023-04-05T21:47:38.599Z,5.78
2023-04-05T21:52:41.664Z,5.86
2023-04-05T21:57:46.254Z,5.82
2023-04-05T22:02:51.755Z,5.71
2023-04-05T22:07:55.047Z,5.59
2023-04-05T22:12:59.648Z,5.64
2023-04-05T22:18:04.001Z,5.64
2023-04-05T22:23:07.210Z,5.68
2023-04-05T22:28:11.836Z,5.71
2023-04-05T22:33:14.988Z,5.77
2023-04-05T22:38:18.898Z,5.76
2023-04-05T22:43:24.152Z,5.74
2023-04-05T22:48:27.715Z,5.66
2023-04-05T22:53:30.773Z,5.67
2023-04-05T22:58:35.442Z,5.70
2023-04-05T23:03:38.624Z,5.70
2023-04-05T23:08:41.876Z,5.67
2023-04-05T23:13:46.482Z,5.61
2023-04-05T23:18:50.750Z,5.54
2023-04-05T23:23:53.839Z,5.46
2023-04-05T23:28:59.041Z,5.47
2023-04-05T23:34:02.416Z,5.41
2023-04-05T23:39:05.444Z,5.38
2023-04-05T23:44:09.935Z,5.35
2023-04-05T23:49:13.027Z,5.30
2023-04-05T23:54:16.123Z,5.27
2023-04-05T23:59:20.977Z,5.25
